Time;durP1;ratioP1;P1;durP2;ratioP2;P2;SDS_P1;SDS_P2;PMS_P1;PMS_P2;Temp;Humidity;BMP_temperature;BMP_pressure;BME280_temperature;BME280_humidity;BME280_pressure;Samples;Min_cycle;Max_cycle;Signal;HPM_P1;HPM_P2
2021/09/04 00:00:45;;;;;;;21.23;12.05;;;;;;;15.49;78.88;101445.34;4948101;29;20047;-82
2021/09/04 00:03:12;;;;;;;25.52;12.27;;;;;;;15.51;79.16;101442.22;4930148;29;20157;-82
2021/09/04 00:05:39;;;;;;;22.33;12.10;;;;;;;15.51;79.12;101434.66;4948038;28;20043;-82
2021/09/04 00:08:06;;;;;;;26.08;13.40;;;;;;;15.53;79.19;101437.09;4931151;29;20059;-81
2021/09/04 00:10:33;;;;;;;29.02;13.52;;;;;;;15.54;79.01;101444.28;4947803;29;20053;-82
2021/09/04 00:12:59;;;;;;;27.77;13.70;;;;;;;15.54;79.13;101444.28;4945894;29;20043;-81
2021/09/04 00:15:26;;;;;;;27.55;13.65;;;;;;;15.53;79.44;101432.31;4948012;29;20050;-82
2021/09/04 00:17:54;;;;;;;28.75;13.07;;;;;;;15.55;79.42;101429.16;4947676;28;20045;-81
2021/09/04 00:20:20;;;;;;;30.73;13.27;;;;;;;15.55;79.24;101417.97;4948287;29;20051;-82
2021/09/04 00:22:47;;;;;;;29.00;13.82;;;;;;;15.56;79.17;101422.41;4930626;29;20059;-81
2021/09/04 00:25:14;;;;;;;27.70;13.50;;;;;;;15.54;79.40;101413.59;4948608;29;20118;-81
2021/09/04 00:27:41;;;;;;;25.15;12.52;;;;;;;15.53;79.55;101414.75;4928282;29;20082;-81
2021/09/04 00:30:12;;;;;;;26.17;13.00;;;;;;;15.54;79.45;101411.59;4931631;29;20047;-82
2021/09/04 00:32:41;;;;;;;24.77;13.45;;;;;;;15.55;79.26;101412.41;4947853;29;20137;-81
2021/09/04 00:35:08;;;;;;;27.17;12.18;;;;;;;15.55;79.17;101409.63;4947880;29;21900;-81
2021/09/04 00:37:36;;;;;;;27.33;12.73;;;;;;;15.56;79.40;101405.66;4947757;29;20051;-81
2021/09/04 00:40:05;;;;;;;33.70;14.02;;;;;;;15.54;79.51;101405.22;4947243;29;20059;-82
2021/09/04 00:42:31;;;;;;;25.70;12.90;;;;;;;15.53;79.55;101409.19;4929332;29;20053;-81
2021/09/04 00:44:58;;;;;;;26.65;13.77;;;;;;;15.54;79.50;101400.44;4946080;28;20059;-81
2021/09/04 00:47:26;;;;;;;23.73;12.32;;;;;;;15.53;79.48;101400.81;4943708;28;20047;-81
2021/09/04 00:49:53;;;;;;;23.77;12.27;;;;;;;15.52;79.59;101399.97;4942590;29;20102;-81
2021/09/04 00:52:19;;;;;;;26.67;13.45;;;;;;;15.53;79.37;101389.63;4945035;29;20062;-82
2021/09/04 00:54:47;;;;;;;25.17;11.95;;;;;;;15.52;79.47;101397.19;4913298;29;20141;-82
2021/09/04 00:57:26;;;;;;;37.45;16.17;;;;;;;15.51;79.50;101381.63;4930807;29;20046;-82
2021/09/04 00:59:54;;;;;;;29.63;12.82;;;;;;;15.52;79.64;101385.22;4946121;28;20094;-81
2021/09/04 01:02:20;;;;;;;24.73;13.70;;;;;;;15.53;79.85;101386.84;4928566;29;20051;-81
2021/09/04 01:04:47;;;;;;;28.27;12.48;;;;;;;15.52;79.65;101385.22;4946121;29;20403;-82
2021/09/04 01:07:14;;;;;;;32.72;13.63;;;;;;;15.50;79.71;101377.22;4946231;28;20051;-81
2021/09/04 01:09:41;;;;;;;25.55;13.25;;;;;;;15.50;79.56;101376.41;4929438;29;20430;-82
2021/09/04 01:12:13;;;;;;;27.55;13.18;;;;;;;15.49;79.66;101374.81;4944295;28;20427;-81
2021/09/04 01:14:40;;;;;;;29.00;13.63;;;;;;;15.49;79.81;101375.59;4928786;29;20051;-81
2021/09/04 01:17:07;;;;;;;30.85;14.55;;;;;;;15.49;79.86;101374.81;4946854;28;20035;-81
2021/09/04 01:19:34;;;;;;;24.27;13.07;;;;;;;15.50;79.66;101376.41;4945856;29;20047;-81
2021/09/04 01:22:00;;;;;;;27.98;12.73;;;;;;;15.48;79.76;101374.00;4945808;29;20386;-82
2021/09/04 01:24:27;;;;;;;24.05;12.18;;;;;;;15.50;79.83;101370.81;4927907;29;20491;-81
2021/09/04 01:26:54;;;;;;;26.48;13.23;;;;;;;15.50;79.85;101363.25;4928740;29;20044;-81
2021/09/04 01:29:23;;;;;;;32.92;14.57;;;;;;;15.50;79.79;101368.03;4946488;28;22023;-82
2021/09/04 01:31:49;;;;;;;24.80;12.75;;;;;;;15.49;79.85;101360.84;4927733;29;20070;-81
2021/09/04 01:34:16;;;;;;;26.98;13.27;;;;;;;15.48;79.81;101360.03;4945523;29;20058;-81
2021/09/04 01:36:43;;;;;;;20.63;11.90;;;;;;;15.47;79.98;101354.81;4927730;29;20055;-82
2021/09/04 01:39:10;;;;;;;28.42;12.73;;;;;;;15.45;79.93;101363.53;4928956;29;20043;-81
2021/09/04 01:41:40;;;;;;;28.67;14.55;;;;;;;15.45;80.09;101352.34;4945685;29;20066;-81
2021/09/04 01:44:07;;;;;;;26.02;13.27;;;;;;;15.46;79.92;101356.00;4885189;29;1246794;-82
2021/09/04 01:46:34;;;;;;;23.45;12.93;;;;;;;15.44;80.17;101349.91;4928936;29;20048;-81
2021/09/04 01:49:02;;;;;;;29.42;13.75;;;;;;;15.45;80.09;101348.75;4944594;29;20510;-82
2021/09/04 01:51:29;;;;;;;41.53;17.38;;;;;;;15.47;80.06;101346.44;4944709;29;20391;-81
2021/09/04 01:53:56;;;;;;;29.45;14.10;;;;;;;15.48;80.03;101339.69;4929685;29;20043;-80
2021/09/04 01:56:22;;;;;;;29.33;14.43;;;;;;;15.47;80.08;101349.22;4945630;29;20057;-82
2021/09/04 01:58:50;;;;;;;24.80;12.90;;;;;;;15.47;80.21;101357.59;4946320;29;20051;-82
2021/09/04 02:01:16;;;;;;;29.42;14.38;;;;;;;15.47;80.18;101350.03;4927254;29;20487;-81
2021/09/04 02:03:44;;;;;;;30.35;14.45;;;;;;;15.49;79.95;101356.06;4927047;29;20047;-82
2021/09/04 02:06:11;;;;;;;28.08;15.95;;;;;;;15.47;79.96;101352.81;4946319;29;20043;-82
2021/09/04 02:08:37;;;;;;;37.10;16.05;;;;;;;15.45;80.22;101351.53;4946392;29;20047;-81
2021/09/04 02:11:06;;;;;;;33.28;15.52;;;;;;;15.43;80.33;101339.94;4945858;29;20079;-81
2021/09/04 02:13:33;;;;;;;33.13;15.52;;;;;;;15.47;80.42;101349.22;4945088;29;20139;-81
2021/09/04 02:16:00;;;;;;;34.30;15.05;;;;;;;15.47;80.40;101338.06;4945840;29;20118;-81
2021/09/04 02:18:29;;;;;;;29.88;13.13;;;;;;;15.46;80.72;101340.03;4928940;29;20046;-81
2021/09/04 02:20:55;;;;;;;33.08;16.33;;;;;;;15.48;80.27;101339.69;4943067;29;20043;-81
2021/09/04 02:23:22;;;;;;;32.50;14.07;;;;;;;15.47;80.39;101338.06;4946258;29;20047;-81
2021/09/04 02:25:49;;;;;;;28.95;14.50;;;;;;;15.46;80.47;101336.47;4927572;29;20511;-81
2021/09/04 02:28:15;;;;;;;30.35;15.13;;;;;;;15.44;80.39;101333.16;4946325;29;20039;-81
2021/09/04 02:30:43;;;;;;;31.15;14.50;;;;;;;15.44;80.63;101333.16;4927304;29;20150;-81
2021/09/04 02:33:10;;;;;;;32.22;13.95;;;;;;;15.44;80.62;101328.41;4946397;29;20051;-82
2021/09/04 02:35:39;;;;;;;32.28;14.43;;;;;;;15.44;80.62;101322.81;4928541;29;20083;-82
2021/09/04 02:38:06;;;;;;;38.83;17.17;;;;;;;15.45;80.56;101334.81;4946422;28;20043;-81
2021/09/04 02:40:33;;;;;;;41.38;16.58;;;;;;;15.45;80.49;101329.22;4946412;28;20062;-82
2021/09/04 02:43:00;;;;;;;34.00;15.80;;;;;;;15.43;80.51;101331.56;4932366;29;20044;-82
2021/09/04 02:45:27;;;;;;;36.75;16.80;;;;;;;15.43;80.58;101326.00;4949936;28;20586;-81
2021/09/04 02:47:53;;;;;;;31.65;14.77;;;;;;;15.45;80.74;101318.88;4915592;29;20138;-82
2021/09/04 02:50:20;;;;;;;34.35;15.65;;;;;;;15.44;80.66;101320.03;4949444;29;20046;-81
2021/09/04 02:52:47;;;;;;;37.38;16.77;;;;;;;15.44;80.82;101322.00;4939638;29;20147;-81
2021/09/04 02:55:13;;;;;;;44.53;19.23;;;;;;;15.43;80.76;101320.41;4949611;29;20042;-82
2021/09/04 02:57:40;;;;;;;37.25;16.35;;;;;;;15.44;80.84;101310.84;4948534;29;20495;-81
2021/09/04 03:00:08;;;;;;;38.22;16.52;;;;;;;15.43;80.95;101309.25;4949124;29;20138;-82
2021/09/04 03:02:34;;;;;;;32.65;15.43;;;;;;;15.45;80.93;101313.28;4946913;28;20043;-81
2021/09/04 03:05:03;;;;;;;35.10;17.25;;;;;;;15.43;80.89;101309.25;4932033;29;20394;-81
2021/09/04 03:07:30;;;;;;;34.42;15.57;;;;;;;15.41;81.00;101300.44;4949331;29;20051;-81
2021/09/04 03:09:57;;;;;;;36.42;16.75;;;;;;;15.43;80.96;101309.25;4931600;29;20066;-82
2021/09/04 03:12:23;;;;;;;35.95;16.48;;;;;;;15.43;80.87;101304.47;4948795;29;20057;-80
2021/09/04 03:14:50;;;;;;;35.50;17.48;;;;;;;15.43;81.20;101298.09;4930692;29;20055;-81
2021/09/04 03:17:17;;;;;;;36.60;18.27;;;;;;;15.43;81.07;101298.91;4930595;29;20127;-82
2021/09/04 03:19:44;;;;;;;40.38;18.00;;;;;;;15.41;81.20;101294.84;4948778;29;20039;-82
2021/09/04 03:22:11;;;;;;;30.27;15.10;;;;;;;15.40;81.13;101288.47;4931674;29;20047;-81
2021/09/04 03:24:38;;;;;;;41.13;17.00;;;;;;;15.40;81.39;101298.81;4931511;29;20054;-81
2021/09/04 03:27:06;;;;;;;40.67;17.27;;;;;;;15.38;81.20;101285.22;4932168;29;20035;-81
2021/09/04 03:29:33;;;;;;;41.70;18.85;;;;;;;15.39;81.30;101286.84;4930898;29;20148;-81
2021/09/04 03:32:01;;;;;;;41.13;18.52;;;;;;;15.39;81.26;101283.22;4930385;29;20058;-83
2021/09/04 03:34:27;;;;;;;41.75;18.95;;;;;;;15.39;81.25;101280.44;4931456;29;20057;-82
2021/09/04 03:36:54;;;;;;;45.47;19.88;;;;;;;15.38;81.55;101284.44;4947372;29;20058;-81
2021/09/04 03:39:21;;;;;;;42.95;18.67;;;;;;;15.37;81.63;101286.41;4930761;29;20039;-81
2021/09/04 03:41:47;;;;;;;41.67;17.83;;;;;;;15.36;81.70;101279.19;4948469;28;20059;-81
2021/09/04 03:44:14;;;;;;;42.78;19.20;;;;;;;15.36;81.52;101270.81;4931126;29;20062;-81
2021/09/04 03:46:41;;;;;;;38.55;17.20;;;;;;;15.37;81.65;101271.63;4948292;29;20055;-81
2021/09/04 03:49:07;;;;;;;36.75;18.55;;;;;;;15.37;81.81;101272.44;4931125;29;20504;-81
2021/09/04 03:51:34;;;;;;;41.20;18.80;;;;;;;15.36;81.54;101276.41;4930210;29;20733;-81
2021/09/04 03:54:01;;;;;;;43.45;17.80;;;;;;;15.36;81.63;101273.59;4931355;29;20047;-81
2021/09/04 03:56:28;;;;;;;43.75;19.50;;;;;;;15.34;81.57;101275.97;4931087;29;20050;-81
2021/09/04 03:58:54;;;;;;;43.20;20.20;;;;;;;15.32;81.75;101278.31;4930797;29;20054;-81
2021/09/04 04:01:21;;;;;;;47.58;20.95;;;;;;;15.32;81.81;101280.28;4947788;29;20061;-81
2021/09/04 04:03:48;;;;;;;41.63;17.83;;;;;;;15.30;81.82;101283.47;4947840;29;20039;-81
2021/09/04 04:06:15;;;;;;;43.65;18.17;;;;;;;15.31;81.69;101287.03;4948560;28;20053;-81
2021/09/04 04:08:42;;;;;;;43.50;20.45;;;;;;;15.31;81.92;101275.88;4947226;29;20392;-81
2021/09/04 04:11:12;;;;;;;36.03;17.27;;;;;;;15.31;82.05;101273.09;4929316;29;20123;-81
2021/09/04 04:13:40;;;;;;;42.65;18.15;;;;;;;15.31;82.02;101273.09;4948599;29;20129;-81
2021/09/04 04:16:07;;;;;;;35.92;17.95;;;;;;;15.30;81.97;101275.09;4947821;29;20551;-81
2021/09/04 04:18:35;;;;;;;44.38;19.95;;;;;;;15.30;81.76;101265.91;4945282;29;20057;-81
2021/09/04 04:21:02;;;;;;;44.40;19.00;;;;;;;15.30;82.06;101266.72;4946929;29;20050;-81
2021/09/04 04:23:29;;;;;;;42.83;19.33;;;;;;;15.29;82.22;101265.09;4946181;29;20039;-81
2021/09/04 04:25:56;;;;;;;40.75;18.30;;;;;;;15.25;82.15;101265.00;4946399;29;20039;-81
2021/09/04 04:28:23;;;;;;;39.28;17.90;;;;;;;15.29;82.40;101269.84;4948454;28;20039;-81
2021/09/04 04:30:50;;;;;;;45.50;19.88;;;;;;;15.30;82.27;101265.91;4947615;29;20051;-81
2021/09/04 04:33:17;;;;;;;39.63;19.73;;;;;;;15.27;82.21;101276.59;4947179;29;20075;-81
2021/09/04 04:35:44;;;;;;;45.50;17.92;;;;;;;15.29;81.95;101273.47;4947603;29;20051;-81
2021/09/04 04:38:11;;;;;;;45.67;18.00;;;;;;;15.28;81.90;101280.19;4946117;28;20043;-81
2021/09/04 04:40:37;;;;;;;45.15;20.38;;;;;;;15.27;81.90;101266.63;4929757;29;20055;-81
2021/09/04 04:43:04;;;;;;;47.10;20.52;;;;;;;15.22;82.33;101271.31;4947252;29;20061;-81
2021/09/04 04:45:31;;;;;;;38.63;18.50;;;;;;;15.19;82.22;101266.47;4930297;29;20065;-81
2021/09/04 04:47:58;;;;;;;44.92;18.83;;;;;;;15.19;82.44;101265.66;4931145;29;20526;-81
2021/09/04 04:50:24;;;;;;;39.88;17.90;;;;;;;15.18;82.25;101255.66;4929927;29;20475;-81
2021/09/04 04:52:51;;;;;;;46.67;19.98;;;;;;;15.14;82.42;101252.00;4929341;28;20446;-81
2021/09/04 04:55:18;;;;;;;38.80;17.55;;;;;;;15.12;82.41;101251.53;4929940;29;20138;-81
2021/09/04 04:57:45;;;;;;;53.08;22.33;;;;;;;15.09;82.22;101250.28;4947495;29;20058;-81
2021/09/04 05:00:12;;;;;;;42.15;19.60;;;;;;;15.09;81.94;101250.28;4946250;29;20054;-81
2021/09/04 05:02:39;;;;;;;43.50;17.88;;;;;;;15.07;82.03;101252.63;4946597;29;20047;-80
2021/09/04 05:05:07;;;;;;;38.38;17.27;;;;;;;15.03;81.87;101257.34;4944070;29;20067;-81
2021/09/04 05:07:34;;;;;;;45.40;18.40;;;;;;;14.97;81.83;101247.63;4929751;29;20126;-81
2021/09/04 05:10:02;;;;;;;42.67;19.73;;;;;;;14.90;81.90;101241.88;4928423;29;20517;-81
2021/09/04 05:12:29;;;;;;;38.30;16.77;;;;;;;14.85;82.10;101239.34;4944046;29;20055;-81
2021/09/04 05:14:56;;;;;;;40.55;17.75;;;;;;;14.79;82.16;101240.81;4947784;29;20150;-81
2021/09/04 05:17:23;;;;;;;49.30;19.45;;;;;;;14.73;82.12;101253.41;4946766;29;20590;-81
2021/09/04 05:19:50;;;;;;;46.13;20.23;;;;;;;14.72;82.10;101246.19;4946418;29;20058;-80
2021/09/04 05:22:16;;;;;;;49.22;19.48;;;;;;;14.66;82.10;101244.06;4929650;29;20511;-81
2021/09/04 05:24:43;;;;;;;43.35;19.95;;;;;;;14.60;82.31;101237.94;4929511;29;20055;-81
2021/09/04 05:27:10;;;;;;;51.20;20.77;;;;;;;14.59;82.39;101233.53;4946912;29;20475;-81
2021/09/04 05:29:37;;;;;;;52.95;21.45;;;;;;;14.57;82.18;101235.88;4946802;29;20051;-81
2021/09/04 05:32:04;;;;;;;50.80;20.55;;;;;;;14.51;82.27;101235.34;4947148;29;20059;-80
2021/09/04 05:34:31;;;;;;;60.50;24.63;;;;;;;14.48;82.53;101240.84;4945959;28;20050;-81
2021/09/04 05:36:59;;;;;;;43.25;20.00;;;;;;;14.41;82.53;101235.88;4946601;28;20051;-81
2021/09/04 05:39:27;;;;;;;48.15;18.95;;;;;;;14.34;82.70;101234.91;4947257;28;20129;-81
2021/09/04 05:41:53;;;;;;;56.42;21.13;;;;;;;14.30;82.37;101231.16;4913238;29;20050;-81
2021/09/04 05:44:20;;;;;;;45.50;19.58;;;;;;;14.18;82.21;101236.81;4945873;28;20059;-81
2021/09/04 05:46:47;;;;;;;45.13;20.00;;;;;;;14.13;82.62;101240.69;4945991;28;20047;-81
2021/09/04 05:49:13;;;;;;;47.22;18.98;;;;;;;14.11;82.26;101234.66;4945803;29;20055;-81
2021/09/04 05:51:40;;;;;;;39.90;19.38;;;;;;;14.10;82.45;101246.16;4945966;28;20047;-81
2021/09/04 05:54:07;;;;;;;39.00;17.85;;;;;;;14.12;82.55;101241.03;4946790;29;20062;-80
2021/09/04 05:56:34;;;;;;;36.53;16.83;;;;;;;14.12;82.83;101238.25;4947049;29;20154;-81
2021/09/04 05:59:00;;;;;;;41.95;18.88;;;;;;;14.18;82.58;101236.81;4928158;29;20051;-81
2021/09/04 06:01:27;;;;;;;41.08;18.55;;;;;;;14.21;82.53;101244.47;4927434;29;20093;-81
2021/09/04 06:03:55;;;;;;;46.47;19.88;;;;;;;14.25;82.75;101246.19;4946134;29;20047;-81
2021/09/04 06:06:22;;;;;;;42.28;20.55;;;;;;;14.29;82.86;101235.13;4946037;28;20070;-81
2021/09/04 06:08:49;;;;;;;43.53;17.65;;;;;;;14.34;82.78;101240.47;4945080;29;20510;-81
2021/09/04 06:11:15;;;;;;;42.72;18.52;;;;;;;14.38;82.71;101235.78;4928827;29;20043;-81
2021/09/04 06:13:42;;;;;;;47.78;19.75;;;;;;;14.45;82.72;101238.78;4946188;29;20518;-80
2021/09/04 06:16:09;;;;;;;37.30;16.77;;;;;;;14.49;82.71;101236.88;4945829;28;20074;-81
2021/09/04 06:18:36;;;;;;;35.58;16.75;;;;;;;14.54;82.72;101228.25;4929088;29;20039;-81
2021/09/04 06:21:02;;;;;;;46.30;19.25;;;;;;;14.59;82.64;101234.34;4945966;29;20043;-81
2021/09/04 06:23:29;;;;;;;39.08;17.75;;;;;;;14.65;82.71;101240.47;4943431;29;20562;-81
2021/09/04 06:25:56;;;;;;;41.10;17.63;;;;;;;14.69;82.97;101235.81;4945947;29;20047;-81
2021/09/04 06:28:22;;;;;;;57.28;20.55;;;;;;;14.74;82.83;101237.50;4928268;29;20039;-81
2021/09/04 06:30:49;;;;;;;49.65;21.48;;;;;;;14.78;82.96;101244.78;4942464;28;20058;-81
2021/09/04 06:33:17;;;;;;;53.65;19.95;;;;;;;14.82;83.40;101251.25;4946547;29;20094;-81
2021/09/04 06:35:44;;;;;;;52.67;22.67;;;;;;;14.87;83.33;101241.78;4927905;29;20150;-81
2021/09/04 06:38:10;;;;;;;55.28;22.95;;;;;;;14.91;83.42;101246.28;4945017;28;20039;-81
2021/09/04 06:40:37;;;;;;;60.33;24.42;;;;;;;14.96;83.76;101245.19;4929029;29;20138;-81
2021/09/04 06:43:04;;;;;;;50.90;21.90;;;;;;;14.99;83.59;101233.31;4945144;28;20055;-81
2021/09/04 06:45:31;;;;;;;50.88;19.40;;;;;;;15.03;83.80;101239.78;4944259;29;20565;-81
2021/09/04 06:47:58;;;;;;;52.85;20.65;;;;;;;15.07;83.80;101246.25;4945688;28;20556;-80
2021/09/04 06:50:25;;;;;;;52.10;22.35;;;;;;;15.12;83.74;101246.78;4923988;29;20491;-81
2021/09/04 06:52:52;;;;;;;57.33;23.00;;;;;;;15.16;83.98;101249.66;4929021;29;20487;-81
2021/09/04 06:55:20;;;;;;;60.58;24.60;;;;;;;15.17;83.99;101249.28;4943427;29;20924;-81
2021/09/04 06:57:49;;;;;;;52.33;22.50;;;;;;;15.18;84.08;101253.69;4942086;29;20050;-81
2021/09/04 07:00:17;;;;;;;54.42;22.08;;;;;;;15.24;84.00;101257.00;4945787;29;22452;-81
2021/09/04 07:02:43;;;;;;;48.72;20.70;;;;;;;15.30;83.82;101260.31;4946202;29;20050;-81
2021/09/04 07:05:10;;;;;;;51.92;23.00;;;;;;;15.34;83.83;101261.19;4927219;29;20521;-81
2021/09/04 07:07:37;;;;;;;52.03;20.98;;;;;;;15.39;84.03;101266.50;4943667;28;20510;-81
2021/09/04 07:10:05;;;;;;;49.95;22.55;;;;;;;15.41;84.17;101255.78;4911812;28;20043;-81
2021/09/04 07:12:32;;;;;;;53.33;19.30;;;;;;;15.42;84.00;101268.56;4927971;29;20402;-81
2021/09/04 07:14:59;;;;;;;54.65;21.85;;;;;;;15.42;84.10;101265.75;4927589;29;20381;-81
2021/09/04 07:17:25;;;;;;;56.40;21.38;;;;;;;15.44;84.12;101271.78;4927657;29;20495;-82
2021/09/04 07:19:54;;;;;;;45.70;18.92;;;;;;;15.47;84.28;101276.66;4944706;28;20051;-82
2021/09/04 07:22:21;;;;;;;53.88;21.23;;;;;;;15.49;84.12;101274.34;4945885;29;20047;-81
2021/09/04 07:24:47;;;;;;;51.20;21.75;;;;;;;15.50;84.00;101279.53;4927145;29;20066;-82
2021/09/04 07:27:14;;;;;;;38.10;19.63;;;;;;;15.52;83.93;101290.34;4928592;29;20047;-81
2021/09/04 07:29:41;;;;;;;40.78;19.15;;;;;;;15.55;83.86;101281.22;4947923;29;20051;-81
2021/09/04 07:32:07;;;;;;;47.03;20.52;;;;;;;15.54;84.03;101288.78;4948520;29;20518;-82
2021/09/04 07:34:34;;;;;;;49.67;19.35;;;;;;;15.55;83.79;101284.84;4948780;28;20122;-82
2021/09/04 07:37:01;;;;;;;44.58;19.98;;;;;;;15.55;83.85;101284.84;4947751;29;20510;-82
2021/09/04 07:39:28;;;;;;;48.72;20.02;;;;;;;15.59;83.72;101284.94;4946278;29;20126;-81
2021/09/04 07:41:54;;;;;;;36.58;17.92;;;;;;;15.58;83.81;101289.69;4930679;29;20055;-82
2021/09/04 07:44:21;;;;;;;45.63;21.13;;;;;;;15.59;83.61;101282.13;4930623;29;20065;-82
2021/09/04 07:46:48;;;;;;;44.63;19.25;;;;;;;15.59;83.73;101284.94;4930010;29;20062;-82
2021/09/04 07:49:14;;;;;;;50.75;20.45;;;;;;;15.57;83.83;101281.66;4948639;29;20047;-82
2021/09/04 07:51:41;;;;;;;40.55;19.20;;;;;;;15.56;83.73;101288.44;4944121;28;20066;-82
2021/09/04 07:54:08;;;;;;;51.20;20.60;;;;;;;15.56;83.84;101292.03;4947740;29;20043;-82
2021/09/04 07:56:35;;;;;;;46.55;19.20;;;;;;;15.57;83.67;101292.84;4931490;29;20056;-82
2021/09/04 07:59:03;;;;;;;43.13;17.55;;;;;;;15.57;83.48;101288.06;4931743;29;20043;-81
2021/09/04 08:01:29;;;;;;;43.42;19.52;;;;;;;15.58;83.69;101300.03;4945081;29;20144;-81
2021/09/04 08:03:56;;;;;;;47.55;19.90;;;;;;;15.59;83.58;101296.09;4948142;29;20498;-82
2021/09/04 08:06:23;;;;;;;37.42;18.13;;;;;;;15.60;83.81;101306.06;4946344;29;20126;-82
2021/09/04 08:08:50;;;;;;;34.13;17.50;;;;;;;15.61;83.75;101305.72;4948542;29;20054;-82
2021/09/04 08:11:18;;;;;;;39.55;19.08;;;;;;;15.63;83.68;101286.59;4946401;29;20050;-81
2021/09/04 08:13:45;;;;;;;52.90;19.52;;;;;;;15.65;83.76;101300.19;4924603;29;20491;-82
2021/09/04 08:16:12;;;;;;;41.97;17.30;;;;;;;15.67;83.91;101298.66;4932056;29;20530;-82
2021/09/04 08:18:39;;;;;;;37.95;16.67;;;;;;;15.69;83.83;101301.09;4931146;29;20070;-83
2021/09/04 08:21:06;;;;;;;34.22;16.67;;;;;;;15.71;83.88;101295.94;4929749;29;20043;-85
2021/09/04 08:23:32;;;;;;;33.85;17.15;;;;;;;15.73;83.96;101291.59;4930729;29;20054;-83
2021/09/04 08:25:59;;;;;;;31.38;16.35;;;;;;;15.77;83.82;101297.28;4929866;29;20043;-82
2021/09/04 08:28:27;;;;;;;37.83;16.45;;;;;;;15.81;83.58;101300.94;4946810;29;20050;-83
2021/09/04 08:30:53;;;;;;;36.47;19.35;;;;;;;15.88;83.82;101298.31;4947841;29;20032;-83
2021/09/04 08:33:20;;;;;;;39.83;17.05;;;;;;;15.95;84.05;101298.44;4945929;29;20039;-82
2021/09/04 08:35:47;;;;;;;32.35;16.27;;;;;;;16.02;83.41;101293.00;4938638;28;20411;-81
2021/09/04 08:38:14;;;;;;;33.60;15.60;;;;;;;16.09;83.49;101293.16;4945913;28;20048;-82
2021/09/04 08:40:42;;;;;;;28.98;14.10;;;;;;;16.14;83.23;101295.63;4930412;29;20040;-82
2021/09/04 08:43:10;;;;;;;32.72;14.68;;;;;;;16.19;83.09;101298.13;4927735;29;20490;-82
2021/09/04 08:45:36;;;;;;;25.30;13.98;;;;;;;16.25;83.01;101291.06;4932561;29;20039;-82
2021/09/04 08:48:03;;;;;;;27.15;14.02;;;;;;;16.27;82.67;101299.88;4945341;28;20487;-81
2021/09/04 08:50:30;;;;;;;28.83;15.48;;;;;;;16.28;82.57;101304.28;4947558;29;20039;-82
2021/09/04 08:52:57;;;;;;;22.25;13.68;;;;;;;16.30;82.69;101307.53;4930513;29;20047;-81
2021/09/04 08:55:24;;;;;;;29.63;14.93;;;;;;;16.32;82.26;101307.97;4948327;28;20047;-82
2021/09/04 08:57:54;;;;;;;61.10;17.75;;;;;;;16.32;82.10;101302.38;4953928;23;20499;-48
2021/09/04 09:00:41;;;;;;;24.10;13.43;;;;;;;16.34;82.04;101310.38;4904730;28;20809;-51
2021/09/04 09:03:25;;;;;;;27.48;14.93;;;;;;;16.31;81.95;101316.69;4906579;28;20059;-52
2021/09/04 09:06:02;;;;;;;24.83;13.93;;;;;;;16.33;81.72;101320.78;4925163;23;20059;-77
2021/09/04 09:08:29;;;;;;;31.67;14.32;;;;;;;16.30;81.64;101313.13;4932089;28;20066;-78
2021/09/04 09:10:59;;;;;;;31.27;16.20;;;;;;;16.28;81.60;101309.88;4959655;28;20074;-77
2021/09/04 09:13:27;;;;;;;28.48;13.70;;;;;;;16.30;81.59;101317.91;4963212;28;20074;-77
2021/09/04 09:15:56;;;;;;;30.92;14.60;;;;;;;16.25;81.48;101313.44;4964373;28;20062;-77
2021/09/04 09:18:27;;;;;;;27.08;13.55;;;;;;;16.24;81.32;101311.78;4946948;28;20051;-78
2021/09/04 09:21:00;;;;;;;28.15;13.65;;;;;;;16.26;81.45;101309.44;4965061;28;20121;-81
2021/09/04 09:23:29;;;;;;;31.00;14.35;;;;;;;16.29;81.46;101311.50;4963913;28;20057;-77
2021/09/04 09:26:06;;;;;;;32.67;13.90;;;;;;;16.31;81.42;101316.69;4961977;28;20075;-80
2021/09/04 09:28:33;;;;;;;27.00;13.85;;;;;;;16.36;81.41;101313.63;4963690;28;20407;-79
2021/09/04 09:31:00;;;;;;;29.17;14.52;;;;;;;16.41;81.24;101305.72;4931222;28;20566;-79
2021/09/04 09:33:28;;;;;;;28.38;13.48;;;;;;;16.47;81.23;101311.81;4944550;28;20051;-79
2021/09/04 09:35:56;;;;;;;47.95;17.13;;;;;;;16.52;81.08;101299.53;4946618;28;20052;-79
2021/09/04 09:38:26;;;;;;;25.92;14.00;;;;;;;16.59;81.04;101302.50;4963437;28;20513;-79
2021/09/04 09:40:55;;;;;;;33.75;17.33;;;;;;;16.69;81.11;101293.47;4945454;28;20043;-79
2021/09/04 09:43:24;;;;;;;28.63;13.90;;;;;;;16.84;80.84;101295.31;4946420;28;20051;-78
2021/09/04 09:46:01;;;;;;;31.85;15.45;;;;;;;17.03;80.68;101298.03;4960500;28;20039;-79
2021/09/04 09:48:32;;;;;;;29.83;14.05;;;;;;;17.56;80.71;101294.06;4945765;28;20106;-79
2021/09/04 09:51:01;;;;;;;27.48;13.75;;;;;;;18.16;80.36;101300.41;4945466;28;20055;-79
2021/09/04 09:53:29;;;;;;;23.02;11.93;;;;;;;18.61;79.55;101293.72;4961531;28;20078;-79
2021/09/04 09:55:58;;;;;;;21.05;11.73;;;;;;;19.24;78.40;101295.44;4959770;28;20407;-79
2021/09/04 09:58:27;;;;;;;20.88;12.75;;;;;;;19.68;76.90;101286.88;4935270;28;20047;-79
2021/09/04 10:00:56;;;;;;;23.13;13.02;;;;;;;19.66;75.64;101298.53;4934929;28;20466;-80
2021/09/04 10:03:25;;;;;;;27.58;14.63;;;;;;;19.53;74.65;101291.63;4934984;28;20540;-80
2021/09/04 10:05:54;;;;;;;26.90;13.30;;;;;;;19.49;74.17;101298.41;4948274;28;20833;-80
2021/09/04 10:08:23;;;;;;;21.50;13.05;;;;;;;19.39;73.56;101305.59;4950419;28;20043;-81
2021/09/04 10:10:50;;;;;;;28.65;13.52;;;;;;;19.25;73.51;101299.84;4948719;28;20047;-81
2021/09/04 10:13:17;;;;;;;22.80;12.13;;;;;;;19.06;72.76;101292.47;4935830;28;20086;-80
2021/09/04 10:15:51;;;;;;;23.80;12.52;;;;;;;18.88;72.29;101293.56;4949811;28;20071;-80
2021/09/04 10:18:23;;;;;;;22.30;12.82;;;;;;;18.77;73.00;101293.47;4951607;28;20043;-81
2021/09/04 10:21:10;;;;;;;27.88;13.23;;;;;;;18.66;72.56;101289.75;4949933;28;20047;-80
2021/09/04 10:23:40;;;;;;;25.67;12.68;;;;;;;18.55;73.12;101298.06;4950184;28;20142;-81
2021/09/04 10:26:29;;;;;;;24.52;12.38;;;;;;;18.50;72.94;101295.63;4948548;28;20048;-81
2021/09/04 10:29:18;;;;;;;23.45;13.55;;;;;;;18.52;73.33;101296.03;4952292;28;20054;-78
2021/09/04 10:31:57;;;;;;;24.05;12.90;;;;;;;18.52;73.21;101290.44;4933914;28;20122;-82
2021/09/04 10:34:39;;;;;;;29.23;12.38;;;;;;;18.49;72.77;101284.78;4950147;28;20495;-81
2021/09/04 10:37:15;;;;;;;;;;;;;;;18.46;72.79;101285.50;4932197;28;20890;-80
2021/09/04 10:40:07;;;;;;;22.95;11.25;;;;;;;18.60;73.55;101286.50;4950777;28;19969;-80
2021/09/04 10:42:40;;;;;;;27.00;13.20;;;;;;;18.96;73.26;101269.94;4950454;28;20082;-82
2021/09/04 10:45:16;;;;;;;20.02;12.02;;;;;;;19.36;72.33;101272.63;4948666;28;20038;-81
2021/09/04 10:47:56;;;;;;;25.20;12.75;;;;;;;19.64;71.83;101272.84;4950105;28;20044;-83
2021/09/04 10:50:33;;;;;;;22.10;12.27;;;;;;;19.76;71.83;101278.09;4951928;28;20039;-83
2021/09/04 10:53:07;;;;;;;23.60;10.88;;;;;;;19.95;71.56;101265.72;4948932;28;20039;-81
2021/09/04 10:55:40;;;;;;;24.13;11.32;;;;;;;20.18;70.62;101268.19;4932369;28;20050;-81
2021/09/04 10:58:13;;;;;;;24.55;11.98;;;;;;;20.43;69.51;101269.09;4949414;28;20069;-82
2021/09/04 11:00:40;;;;;;;25.60;12.07;;;;;;;20.22;70.12;101269.03;4932529;28;20047;-82
2021/09/04 11:03:10;;;;;;;23.52;10.95;;;;;;;20.11;69.36;101263.38;4934993;28;20057;-84
2021/09/04 11:05:40;;;;;;;20.48;11.50;;;;;;;20.18;69.19;101268.19;4952421;28;20508;-82
2021/09/04 11:08:19;;;;;;;26.05;10.98;;;;;;;20.25;69.27;101262.66;4951324;28;20047;-88
2021/09/04 11:10:49;;;;;;;35.47;12.13;;;;;;;20.37;68.80;101265.06;4953846;28;20790;-88
2021/09/04 11:13:17;;;;;;;70.38;15.88;;;;;;;20.42;68.65;101264.66;4953068;28;20114;-96